Time;durP1;ratioP1;P1;durP2;ratioP2;P2;SDS_P1;SDS_P2;PMS_P1;PMS_P2;Temp;Humidity;BMP_temperature;BMP_pressure;BME280_temperature;BME280_humidity;BME280_pressure;Samples;Min_cycle;Max_cycle;Signal;HPM_P1;HPM_P2
2022/11/21 00:00:16;;;;;;;42.00;25.73;;;;;;;-0.16;98.12;100632.22;5000600;28;20190;-72
2022/11/21 00:02:41;;;;;;;41.80;24.97;;;;;;;-0.11;98.18;100635.84;4982126;28;20665;-72
2022/11/21 00:05:07;;;;;;;50.47;31.93;;;;;;;-0.09;98.47;100630.13;4984851;28;20191;-67
2022/11/21 00:07:32;;;;;;;46.93;29.90;;;;;;;-0.09;97.83;100634.31;4984630;28;20196;-69
2022/11/21 00:09:58;;;;;;;45.00;27.73;;;;;;;-0.05;98.82;100631.16;4987349;28;20183;-71
2022/11/21 00:12:23;;;;;;;49.20;29.90;;;;;;;-0.01;98.51;100621.38;4981661;28;20790;-69
2022/11/21 00:14:49;;;;;;;46.30;28.40;;;;;;;-0.02;98.86;100623.81;4980996;28;20673;-68
2022/11/21 00:17:15;;;;;;;43.73;26.63;;;;;;;-0.14;98.31;100636.56;4986736;28;20184;-70
2022/11/21 00:19:40;;;;;;;49.10;27.27;;;;;;;-0.22;98.66;100629.34;4984829;28;20204;-70
2022/11/21 00:22:05;;;;;;;51.70;28.07;;;;;;;-0.29;99.31;100630.63;4989478;28;20323;-71
2022/11/21 00:24:31;;;;;;;54.37;29.40;;;;;;;-0.33;99.63;100631.25;4988996;28;20230;-70
2022/11/21 00:26:56;;;;;;;58.77;29.03;;;;;;;-0.38;99.22;100624.19;4988388;28;20206;-70
2022/11/21 00:29:22;;;;;;;49.83;29.33;;;;;;;-0.32;99.03;100615.38;4988733;28;20649;-72
2022/11/21 00:31:47;;;;;;;62.73;30.43;;;;;;;-0.39;99.82;100620.84;4986706;28;20215;-69
2022/11/21 00:34:13;;;;;;;59.40;30.03;;;;;;;-0.35;99.34;100616.84;4987592;28;20183;-70
2022/11/21 00:36:38;;;;;;;90.37;32.80;;;;;;;-0.61;99.73;100610.28;4987007;28;20723;-73
2022/11/21 00:39:03;;;;;;;78.87;32.13;;;;;;;-0.61;100.00;100604.38;4988293;28;20196;-71
2022/11/21 00:41:29;;;;;;;105.97;34.40;;;;;;;-0.60;100.00;100609.50;4984137;28;20306;-70
2022/11/21 00:43:54;;;;;;;87.30;33.43;;;;;;;-0.60;100.00;100601.97;4983959;28;20543;-71
2022/11/21 00:46:19;;;;;;;109.00;31.40;;;;;;;-0.75;100.00;100608.59;4987469;28;20862;-70
2022/11/21 00:48:45;;;;;;;128.87;32.30;;;;;;;-0.76;100.00;100604.38;4982309;28;20204;-70
2022/11/21 00:51:10;;;;;;;97.37;30.30;;;;;;;-0.88;100.00;100603.63;4984118;28;20207;-71
2022/11/21 00:53:36;;;;;;;71.87;31.10;;;;;;;-0.83;100.00;100604.75;4984073;28;20207;-70
2022/11/21 00:56:01;;;;;;;122.83;30.80;;;;;;;-0.89;100.00;100603.53;4986012;28;20215;-70
2022/11/21 00:58:27;;;;;;;82.63;31.67;;;;;;;-0.89;100.00;100601.00;4983260;28;20202;-71
2022/11/21 01:01:02;;;;;;;72.87;31.73;;;;;;;-0.92;100.00;100599.19;4989688;28;20247;-70
2022/11/21 01:03:27;;;;;;;95.57;31.93;;;;;;;-0.93;100.00;100597.47;4989022;28;20258;-69
2022/11/21 01:05:53;;;;;;;94.47;32.67;;;;;;;-0.97;100.00;100598.03;4989767;28;20188;-70
2022/11/21 01:08:18;;;;;;;110.13;33.00;;;;;;;-0.93;100.00;100599.09;4990739;28;20249;-70
2022/11/21 01:10:43;;;;;;;105.43;33.13;;;;;;;-0.96;100.00;100596.41;4990602;28;20247;-71
2022/11/21 01:13:09;;;;;;;91.77;33.90;;;;;;;-1.02;100.00;100601.03;4991852;28;20192;-70
2022/11/21 01:15:34;;;;;;;90.33;33.47;;;;;;;-1.08;100.00;100605.72;4989175;28;20227;-69
2022/11/21 01:18:00;;;;;;;110.03;34.37;;;;;;;-1.01;100.00;100608.69;4988998;28;20188;-71
2022/11/21 01:20:25;;;;;;;106.43;33.83;;;;;;;-1.06;100.00;100604.19;4990905;28;20211;-70
2022/11/21 01:22:51;;;;;;;115.97;34.50;;;;;;;-1.11;100.00;100600.47;4990410;28;20195;-70
2022/11/21 01:25:16;;;;;;;90.03;33.37;;;;;;;-1.14;100.00;100597.81;4992975;28;20549;-70
2022/11/21 01:27:42;;;;;;;99.97;31.47;;;;;;;-1.18;100.00;100606.81;4988202;28;20191;-69
2022/11/21 01:30:10;;;;;;;91.00;34.93;;;;;;;-1.10;100.00;100594.72;4991521;28;20804;-70
2022/11/21 01:32:36;;;;;;;109.10;35.53;;;;;;;-1.17;100.00;100606.03;4992798;28;20203;-68
2022/11/21 01:35:01;;;;;;;110.70;36.30;;;;;;;-1.11;100.00;100605.50;4992751;28;20220;-69
2022/11/21 01:37:26;;;;;;;94.90;35.70;;;;;;;-1.07;100.00;100600.78;4992787;28;20198;-70
2022/11/21 01:39:52;;;;;;;98.73;35.50;;;;;;;-1.05;100.00;100600.88;4992764;28;20607;-69
2022/11/21 01:42:17;;;;;;;100.77;35.17;;;;;;;-1.00;100.00;100592.81;4998308;28;20208;-70
2022/11/21 01:44:53;;;;;;;105.53;34.23;;;;;;;-0.98;100.00;100606.38;4990658;28;20202;-70
2022/11/21 01:47:21;;;;;;;119.07;34.77;;;;;;;-1.00;100.00;100592.81;4991394;28;20215;-70
2022/11/21 01:49:47;;;;;;;148.30;36.67;;;;;;;-1.00;100.00;100590.31;4992673;28;20725;-69
2022/11/21 01:52:28;;;;;;;103.47;36.20;;;;;;;-1.03;100.00;100587.63;4992341;28;20208;-70
2022/11/21 01:55:03;;;;;;;126.27;37.50;;;;;;;-1.04;100.00;100595.06;4990951;28;20184;-69
2022/11/21 01:57:35;;;;;;;132.30;36.90;;;;;;;-1.06;100.00;100587.44;4992231;28;20242;-68
2022/11/21 02:00:09;;;;;;;143.20;38.73;;;;;;;-0.99;100.00;100586.16;4998240;28;20206;-68
2022/11/21 02:02:38;;;;;;;132.77;38.73;;;;;;;-1.03;100.00;100584.25;4988067;28;20201;-68
2022/11/21 02:05:07;;;;;;;94.00;35.97;;;;;;;-0.96;100.00;100583.84;4992347;28;20188;-69
2022/11/21 02:07:38;;;;;;;102.27;36.17;;;;;;;-0.91;100.00;100585.00;4991115;28;20561;-70
2022/11/21 02:10:04;;;;;;;114.83;39.07;;;;;;;-0.92;100.00;100589.13;5001431;28;20239;-68
2022/11/21 02:12:48;;;;;;;132.43;37.73;;;;;;;-0.97;100.00;100594.66;4991661;28;20219;-69
2022/11/21 02:15:13;;;;;;;111.87;38.63;;;;;;;-1.06;100.00;100596.63;5000646;23;20354;-76
2022/11/21 02:17:39;;;;;;;113.77;38.93;;;;;;;-1.01;100.00;100590.25;4988891;28;20370;-75
2022/11/21 02:20:08;;;;;;;112.90;38.47;;;;;;;-1.01;100.00;100597.78;4977944;28;20564;-76
2022/11/21 02:23:01;;;;;;;87.30;36.07;;;;;;;-0.96;100.00;100608.97;4966371;28;20206;-76
2022/11/21 02:25:31;;;;;;;117.27;38.73;;;;;;;-0.93;100.00;100596.56;4981390;28;20195;-75
2022/11/21 02:28:00;;;;;;;102.10;38.43;;;;;;;-0.88;100.00;100598.59;4967810;28;20203;-75
2022/11/21 02:30:28;;;;;;;110.17;38.93;;;;;;;-0.85;100.00;100598.78;4986524;28;20680;-75
2022/11/21 02:32:54;;;;;;;122.73;41.17;;;;;;;-0.85;100.00;100601.31;4987523;28;20215;-75
2022/11/21 02:35:20;;;;;;;91.30;35.60;;;;;;;-0.82;100.00;100598.94;4984242;28;20266;-76
2022/11/21 02:37:50;;;;;;;85.57;35.23;;;;;;;-0.76;100.00;100599.34;4980531;28;20212;-75
2022/11/21 02:40:24;;;;;;;98.90;37.00;;;;;;;-0.78;100.00;100605.06;4965726;28;20195;-75
2022/11/21 02:43:04;;;;;;;99.10;37.77;;;;;;;-0.76;100.00;100601.84;4978063;28;20193;-78
2022/11/21 02:45:38;;;;;;;86.73;34.97;;;;;;;-0.75;100.00;100610.25;4977324;28;20546;-78
2022/11/21 02:48:04;;;;;;;95.07;36.23;;;;;;;-0.75;100.00;100602.69;4982118;28;20230;-77
2022/11/21 02:50:32;;;;;;;87.00;36.10;;;;;;;-0.73;100.00;100599.50;4974195;28;20192;-77
2022/11/21 02:52:57;;;;;;;102.53;37.37;;;;;;;-0.73;100.00;100608.72;4976234;28;20712;-77
2022/11/21 02:55:24;;;;;;;103.63;37.57;;;;;;;-0.70;100.00;100602.22;4987984;28;20208;-78
2022/11/21 02:57:49;;;;;;;86.80;35.37;;;;;;;-0.68;100.00;100604.81;4980058;28;20230;-77
2022/11/21 03:00:16;;;;;;;103.23;36.70;;;;;;;-0.65;100.00;100600.84;4986717;28;20189;-77
2022/11/21 03:02:41;;;;;;;112.83;38.00;;;;;;;-0.67;100.00;100602.41;4983092;28;20208;-77
2022/11/21 03:05:10;;;;;;;97.67;37.93;;;;;;;-0.63;100.00;100600.94;4982488;28;20189;-77
2022/11/21 03:07:35;;;;;;;101.03;36.03;;;;;;;-0.60;100.00;100589.41;4979418;28;20255;-77
2022/11/21 03:10:01;;;;;;;119.70;38.43;;;;;;;-0.57;100.00;100596.25;4978384;28;20215;-76
2022/11/21 03:12:26;;;;;;;116.13;38.80;;;;;;;-0.54;100.00;100592.25;4982932;28;20261;-77
2022/11/21 03:14:52;;;;;;;111.43;38.90;;;;;;;-0.54;100.00;100584.72;4978303;28;20259;-77
2022/11/21 03:17:17;;;;;;;98.13;37.77;;;;;;;-0.54;100.00;100589.75;4984365;28;20192;-78
2022/11/21 03:19:43;;;;;;;107.20;39.63;;;;;;;-0.50;100.00;100590.81;4978057;28;20196;-77
2022/11/21 03:22:08;;;;;;;119.80;39.37;;;;;;;-0.48;100.00;100592.63;4983327;28;20199;-77
2022/11/21 03:24:34;;;;;;;116.47;38.73;;;;;;;-0.50;100.00;100594.19;4977838;28;20223;-77
2022/11/21 03:26:59;;;;;;;117.87;41.13;;;;;;;-0.55;100.00;100592.19;4980425;28;20212;-76
2022/11/21 03:29:24;;;;;;;105.10;38.40;;;;;;;-0.50;100.00;100590.81;4977679;28;20228;-77
2022/11/21 03:31:50;;;;;;;106.30;38.60;;;;;;;-0.53;100.00;100586.47;5006624;23;20716;-70
2022/11/21 03:34:15;;;;;;;113.20;38.73;;;;;;;-0.54;100.00;100579.69;4990673;28;20215;-70
2022/11/21 03:36:41;;;;;;;100.73;38.77;;;;;;;-0.50;100.00;100576.59;4978407;28;20306;-71
2022/11/21 03:39:06;;;;;;;119.53;39.00;;;;;;;-0.49;100.00;100578.31;4972182;28;20184;-70
2022/11/21 03:41:32;;;;;;;102.47;38.63;;;;;;;-0.48;100.00;100585.09;4953854;28;20929;-70
2022/11/21 03:44:00;;;;;;;108.73;40.30;;;;;;;-0.44;100.00;100588.66;4975957;28;20247;-70
2022/11/21 03:46:26;;;;;;;106.90;35.70;;;;;;;-0.47;100.00;100580.91;4977293;28;20673;-70
2022/11/21 03:48:52;;;;;;;118.40;37.67;;;;;;;-0.52;100.00;100582.31;4972760;28;20188;-70
2022/11/21 03:51:18;;;;;;;126.50;38.17;;;;;;;-0.53;100.00;100581.44;4977407;28;20192;-71
2022/11/21 03:53:43;;;;;;;139.37;40.87;;;;;;;-0.50;100.00;100573.22;4980688;28;20227;-71
2022/11/21 03:56:08;;;;;;;127.10;40.27;;;;;;;-0.52;100.00;100579.78;4980425;28;20220;-70
2022/11/21 03:58:34;;;;;;;122.50;39.93;;;;;;;-0.55;100.00;100572.94;4975500;28;20566;-70
2022/11/21 04:00:59;;;;;;;127.33;39.57;;;;;;;-0.55;100.00;100575.44;4978305;28;20193;-71
2022/11/21 04:03:25;;;;;;;133.90;41.57;;;;;;;-0.63;100.00;100576.63;4981894;28;20192;-70
2022/11/21 04:05:50;;;;;;;106.00;37.80;;;;;;;-0.68;100.00;100575.50;4972365;28;20200;-70
2022/11/21 04:08:16;;;;;;;103.27;38.73;;;;;;;-0.66;100.00;100583.13;4973063;28;20196;-71
2022/11/21 04:10:49;;;;;;;108.73;39.27;;;;;;;-0.60;100.00;100588.50;4978533;28;20188;-70
2022/11/21 04:13:15;;;;;;;105.00;37.43;;;;;;;-0.61;100.00;100585.16;4977391;28;20539;-70
2022/11/21 04:15:41;;;;;;;101.00;38.77;;;;;;;-0.61;100.00;100582.66;4971245;28;20286;-71
2022/11/21 04:18:06;;;;;;;124.03;40.00;;;;;;;-0.60;100.00;100589.41;4972625;28;20204;-71
2022/11/21 04:20:32;;;;;;;99.93;37.70;;;;;;;-0.64;100.00;100591.66;4977007;28;20199;-70
2022/11/21 04:22:57;;;;;;;113.57;39.03;;;;;;;-0.69;100.00;100596.41;4984124;28;20202;-70
2022/11/21 04:25:23;;;;;;;120.63;39.30;;;;;;;-0.74;100.00;100600.28;4974048;28;20287;-71
2022/11/21 04:27:48;;;;;;;108.57;38.23;;;;;;;-0.74;100.00;100594.38;4974590;28;20192;-70
2022/11/21 04:30:14;;;;;;;118.00;39.50;;;;;;;-0.77;100.00;100596.72;4973905;28;20195;-70
2022/11/21 04:32:39;;;;;;;121.87;38.23;;;;;;;-0.84;100.00;100594.63;4976846;28;20203;-71
2022/11/21 04:35:06;;;;;;;110.37;38.83;;;;;;;-0.82;100.00;100593.06;4970164;28;20228;-71
2022/11/21 04:37:31;;;;;;;124.07;37.47;;;;;;;-0.84;100.00;100592.97;4978362;28;20710;-71
2022/11/21 04:39:57;;;;;;;116.53;38.73;;;;;;;-0.90;100.00;100601.78;4970827;28;20212;-71
2022/11/21 04:42:22;;;;;;;99.53;38.40;;;;;;;-0.94;100.00;100598.25;4970129;28;20238;-71
2022/11/21 04:44:48;;;;;;;117.13;37.63;;;;;;;-1.02;100.00;100599.41;4972467;28;20308;-73
2022/11/21 04:47:13;;;;;;;113.17;38.57;;;;;;;-1.00;100.00;100597.84;4980044;28;20594;-70
2022/11/21 04:49:39;;;;;;;96.57;36.73;;;;;;;-1.05;100.00;100600.88;4971666;28;20199;-70
2022/11/21 04:52:04;;;;;;;107.90;35.77;;;;;;;-1.07;100.00;100610.84;4968471;28;20191;-70
2022/11/21 04:54:30;;;;;;;98.67;36.43;;;;;;;-1.18;100.00;100604.31;4975369;28;20188;-70
2022/11/21 04:56:55;;;;;;;118.47;36.97;;;;;;;-1.22;100.00;100604.88;4986486;28;20752;-70
2022/11/21 04:59:21;;;;;;;108.33;37.90;;;;;;;-1.20;100.00;100603.31;4980379;28;20731;-70
2022/11/21 05:01:46;;;;;;;110.97;38.03;;;;;;;-1.11;100.00;100606.38;4979552;28;20253;-70
2022/11/21 05:04:12;;;;;;;100.60;38.60;;;;;;;-1.07;100.00;100604.94;4981208;28;20197;-71
2022/11/21 05:06:37;;;;;;;107.77;36.13;;;;;;;-1.16;100.00;100600.22;4979698;28;20205;-71
2022/11/21 05:09:03;;;;;;;93.33;35.97;;;;;;;-1.17;100.00;100597.63;4972781;28;20587;-71
2022/11/21 05:14:12;;;;;;;99.63;36.13;;;;;;;-1.09;100.00;100594.78;4975164;28;20777;-71
2022/11/21 05:16:38;;;;;;;98.13;35.93;;;;;;;-1.04;100.00;100595.97;4975310;28;20295;-71
2022/11/21 05:19:03;;;;;;;85.77;33.40;;;;;;;-1.01;100.00;100602.81;4976213;28;20176;-71
2022/11/21 05:21:28;;;;;;;94.87;34.40;;;;;;;-1.03;100.00;100601.81;4979535;28;20189;-72
2022/11/21 05:23:54;;;;;;;91.03;34.17;;;;;;;-1.01;100.00;100607.84;4974624;28;20188;-71
2022/11/21 05:26:19;;;;;;;92.13;34.03;;;;;;;-1.13;100.00;100609.59;4976313;28;20263;-71
2022/11/21 05:28:46;;;;;;;95.53;32.50;;;;;;;-1.24;100.00;100613.94;4977668;28;20239;-71
2022/11/21 05:31:12;;;;;;;82.50;32.67;;;;;;;-1.29;100.00;100617.81;4973997;28;20234;-71
2022/11/21 05:33:37;;;;;;;79.50;33.23;;;;;;;-1.25;100.00;100618.88;4981565;28;20207;-71
2022/11/21 05:36:03;;;;;;;80.10;32.70;;;;;;;-1.20;100.00;100620.91;4977568;28;20216;-70
2022/11/21 05:38:28;;;;;;;85.13;32.90;;;;;;;-1.17;100.00;100617.69;4977804;28;20207;-71
2022/11/21 05:40:53;;;;;;;77.03;32.03;;;;;;;-1.18;100.00;100616.84;4972343;28;20200;-72
2022/11/21 05:46:03;;;;;;;97.27;34.60;;;;;;;-1.24;100.00;100611.44;4977207;28;20246;-71
2022/11/21 05:48:28;;;;;;;104.20;34.07;;;;;;;-1.24;100.00;100613.94;4977350;28;20216;-72
2022/11/21 05:50:54;;;;;;;89.27;31.93;;;;;;;-1.28;100.00;100612.00;4977290;28;20229;-71
2022/11/21 05:53:19;;;;;;;88.83;33.33;;;;;;;-1.32;100.00;100609.22;4985302;28;20219;-70
2022/11/21 05:55:45;;;;;;;98.90;32.30;;;;;;;-1.37;100.00;100608.09;4975439;28;20220;-70
2022/11/21 05:58:11;;;;;;;121.37;34.73;;;;;;;-1.64;100.00;100617.28;4975047;28;20825;-71
2022/11/21 06:00:37;;;;;;;98.03;33.37;;;;;;;-1.48;100.00;100619.06;4976175;28;20228;-70
2022/11/21 06:05:47;;;;;;;85.77;32.27;;;;;;;-1.47;100.00;100621.69;4986099;28;20239;-71
2022/11/21 06:08:12;;;;;;;86.47;30.87;;;;;;;-1.44;100.00;100618.50;4983850;28;20212;-71
2022/11/21 06:10:38;;;;;;;89.37;32.77;;;;;;;-1.45;100.00;100619.28;4973021;28;20216;-69
2022/11/21 06:13:20;;;;;;;97.43;33.37;;;;;;;-1.50;100.00;100620.63;4974154;28;20220;-71
2022/11/21 06:15:50;;;;;;;95.40;33.17;;;;;;;-1.49;100.00;100619.88;4971868;28;20216;-70
2022/11/21 06:18:16;;;;;;;119.30;34.63;;;;;;;-1.49;100.00;100610.69;4976841;28;20200;-71
2022/11/21 06:20:42;;;;;;;89.67;31.80;;;;;;;-1.47;100.00;100610.81;4981108;28;20183;-72
2022/11/21 06:23:07;;;;;;;75.77;32.13;;;;;;;-1.54;100.00;100614.56;4977909;28;20283;-70
2022/11/21 06:25:33;;;;;;;85.10;31.43;;;;;;;-1.51;100.00;100612.22;4981051;28;20200;-71
2022/11/21 06:27:59;;;;;;;109.27;32.40;;;;;;;-1.58;100.00;100605.09;4983467;28;20203;-71
2022/11/21 06:30:24;;;;;;;103.30;32.90;;;;;;;-1.54;100.00;100609.56;4983483;28;20281;-71
2022/11/21 06:32:50;;;;;;;116.00;33.80;;;;;;;-1.60;100.00;100614.16;4978669;28;20641;-71
2022/11/21 06:35:15;;;;;;;130.07;32.87;;;;;;;-1.66;100.00;100607.91;4976516;28;20212;-71
2022/11/21 06:37:41;;;;;;;83.93;30.43;;;;;;;-1.65;100.00;100618.03;4979770;28;20616;-70
2022/11/21 06:40:06;;;;;;;91.77;32.67;;;;;;;-1.70;100.00;100613.50;4976778;28;20216;-71
2022/11/21 06:42:32;;;;;;;88.33;29.83;;;;;;;-1.64;100.00;100606.38;4979273;28;20684;-71
2022/11/21 06:44:58;;;;;;;100.27;31.80;;;;;;;-1.66;100.00;100616.28;4978004;28;20258;-71
2022/11/21 06:47:23;;;;;;;98.03;32.10;;;;;;;-1.67;100.00;100626.22;4980595;28;20227;-71
2022/11/21 06:49:48;;;;;;;77.33;30.73;;;;;;;-1.69;100.00;100623.63;4972959;28;20196;-71
2022/11/21 06:52:14;;;;;;;72.33;28.93;;;;;;;-1.63;100.00;100619.00;4977036;28;20203;-72
2022/11/21 06:54:39;;;;;;;75.83;29.70;;;;;;;-1.58;100.00;100615.16;4976500;28;20319;-72
2022/11/21 06:57:05;;;;;;;80.00;31.50;;;;;;;-1.63;100.00;100616.50;4971368;28;20208;-71
2022/11/21 06:59:30;;;;;;;101.50;28.67;;;;;;;-1.72;100.00;100617.53;4972452;28;20740;-72
2022/11/21 07:01:56;;;;;;;78.70;27.73;;;;;;;-1.80;100.00;100617.06;4982190;28;20210;-71
2022/11/21 07:04:21;;;;;;;66.03;27.27;;;;;;;-1.77;100.00;100627.31;4977594;28;20188;-71
2022/11/21 07:06:46;;;;;;;102.13;28.10;;;;;;;-1.89;100.00;100630.69;4979697;28;20208;-72
2022/11/21 07:09:12;;;;;;;80.57;26.10;;;;;;;-2.00;100.00;100634.13;4973146;28;20579;-71
2022/11/21 07:11:37;;;;;;;72.43;25.50;;;;;;;-2.03;100.00;100633.91;4975402;28;20650;-70
2022/11/21 07:14:02;;;;;;;59.57;24.87;;;;;;;-2.04;100.00;100628.03;4971807;28;20195;-71
2022/11/21 07:16:30;;;;;;;131.17;30.23;;;;;;;-2.05;100.00;100631.31;4978630;28;20238;-70
2022/11/21 07:18:56;;;;;;;69.10;26.63;;;;;;;-2.10;100.00;100625.16;4960652;28;20192;-71
2022/11/21 07:21:21;;;;;;;72.43;25.90;;;;;;;-2.03;100.00;100633.91;4972203;28;20494;-71
2022/11/21 07:23:47;;;;;;;67.77;27.00;;;;;;;-1.92;100.00;100632.97;4973008;28;20883;-71
2022/11/21 07:26:12;;;;;;;66.83;27.03;;;;;;;-1.87;100.00;100627.50;4980933;28;20223;-71
2022/11/21 07:28:38;;;;;;;80.43;28.53;;;;;;;-1.92;100.00;100638.00;4975002;28;20894;-71
2022/11/21 07:31:04;;;;;;;69.57;26.27;;;;;;;-1.88;100.00;100630.75;4973522;28;20238;-71
2022/11/21 07:33:29;;;;;;;74.77;27.00;;;;;;;-1.95;100.00;100637.78;4978475;28;20193;-71
2022/11/21 07:35:56;;;;;;;64.47;26.87;;;;;;;-2.03;100.00;100627.25;4973970;28;20212;-70
2022/11/21 07:38:22;;;;;;;71.83;26.90;;;;;;;-1.98;100.00;100625.06;4976011;28;20602;-71
2022/11/21 07:40:47;;;;;;;70.50;26.10;;;;;;;-1.97;100.00;100622.63;4971377;28;20463;-70
2022/11/21 07:43:13;;;;;;;73.90;28.10;;;;;;;-1.99;100.00;100618.28;4978318;28;20185;-70
2022/11/21 07:45:38;;;;;;;64.47;26.20;;;;;;;-2.02;100.00;100618.13;4974625;28;20204;-71
2022/11/21 07:48:05;;;;;;;106.63;28.57;;;;;;;-2.04;100.00;100620.50;4977175;28;20194;-71
2022/11/21 07:50:31;;;;;;;66.23;26.83;;;;;;;-1.95;100.00;100618.59;4976057;28;20199;-70
2022/11/21 07:52:58;;;;;;;77.77;27.47;;;;;;;-2.02;100.00;100615.59;4975410;28;20235;-70
2022/11/21 07:55:23;;;;;;;67.83;25.83;;;;;;;-1.91;100.00;100614.63;4984478;28;20220;-70
2022/11/21 07:58:00;;;;;;;65.23;25.57;;;;;;;-1.89;100.00;100620.66;4971006;28;21783;-71
2022/11/21 08:00:27;;;;;;;68.07;26.63;;;;;;;-1.89;100.00;100618.97;4972324;28;20275;-70
2022/11/21 08:02:52;;;;;;;67.17;26.63;;;;;;;-1.89;100.00;100611.47;4978580;28;20449;-70
2022/11/21 08:05:18;;;;;;;61.60;25.43;;;;;;;-1.86;100.00;100619.19;4971404;28;20607;-70
2022/11/21 08:07:44;;;;;;;64.60;25.73;;;;;;;-1.87;100.00;100624.97;4972316;28;20545;-70
2022/11/21 08:10:09;;;;;;;60.57;25.40;;;;;;;-1.82;100.00;100615.22;4972339;28;20459;-70
2022/11/21 08:12:35;;;;;;;60.77;26.63;;;;;;;-1.80;100.00;100606.16;4967700;28;20211;-71
2022/11/21 08:15:00;;;;;;;50.93;23.90;;;;;;;-1.86;100.00;100616.69;4974038;28;20213;-70
2022/11/21 08:17:26;;;;;;;57.33;26.27;;;;;;;-1.95;100.00;100618.59;4972891;28;20199;-71
2022/11/21 08:19:52;;;;;;;61.57;26.70;;;;;;;-1.95;100.00;100615.22;4975013;28;20720;-71
2022/11/21 08:22:17;;;;;;;63.20;26.27;;;;;;;-1.95;100.00;100627.75;4980452;28;20202;-72
2022/11/21 08:24:42;;;;;;;57.30;25.10;;;;;;;-1.89;100.00;100631.53;4975080;28;20291;-71
2022/11/21 08:27:08;;;;;;;61.10;25.57;;;;;;;-1.90;100.00;100626.41;4970570;28;20649;-71
2022/11/21 08:29:33;;;;;;;65.93;26.33;;;;;;;-1.81;100.00;100627.88;4978206;28;20185;-71
2022/11/21 08:31:59;;;;;;;65.87;27.00;;;;;;;-1.80;100.00;100621.19;4975467;28;20291;-71
2022/11/21 08:34:25;;;;;;;63.20;27.23;;;;;;;-1.75;100.00;100620.72;4979125;28;20196;-71
2022/11/21 08:36:50;;;;;;;52.10;23.93;;;;;;;-1.64;100.00;100622.31;4984637;28;20267;-71
2022/11/21 08:39:15;;;;;;;53.10;23.10;;;;;;;-1.55;100.00;100617.84;4979630;28;20729;-71
2022/11/21 08:44:25;;;;;;;46.17;21.83;;;;;;;-1.39;100.00;100602.09;4973161;28;20200;-71
2022/11/21 08:46:50;;;;;;;37.03;20.17;;;;;;;-1.33;100.00;100610.00;4975879;28;20226;-71
2022/11/21 08:49:16;;;;;;;37.23;19.37;;;;;;;-1.18;100.00;100603.41;4981893;28;20279;-71
2022/11/21 08:51:41;;;;;;;34.93;18.57;;;;;;;-0.94;99.07;100603.25;4976303;28;20266;-71
2022/11/21 08:54:08;;;;;;;36.60;19.13;;;;;;;-0.89;97.74;100601.91;4978493;28;20540;-71
2022/11/21 08:56:33;;;;;;;36.07;18.77;;;;;;;-0.95;97.85;100594.00;4977952;28;20250;-71
2022/11/21 08:58:59;;;;;;;35.37;18.27;;;;;;;-1.01;97.30;100595.28;4977189;28;20199;-70
2022/11/21 09:01:24;;;;;;;34.50;18.27;;;;;;;-1.09;97.06;100594.78;4974986;28;20235;-71
2022/11/21 09:03:49;;;;;;;30.97;17.90;;;;;;;-0.86;96.33;100598.69;4975081;28;20576;-71
2022/11/21 09:06:15;;;;;;;33.30;18.23;;;;;;;-0.64;95.07;100604.22;4985069;28;20216;-71
2022/11/21 09:08:40;;;;;;;32.33;19.27;;;;;;;-0.97;95.04;100604.69;4975942;28;20185;-72
2022/11/21 09:11:07;;;;;;;34.13;18.20;;;;;;;-1.02;95.78;100604.44;4986117;28;20700;-70
2022/11/21 09:13:33;;;;;;;34.77;18.83;;;;;;;-1.05;95.92;100614.28;4982554;28;20193;-70
2022/11/21 09:18:43;;;;;;;34.57;18.00;;;;;;;-0.42;94.67;100615.63;4973656;28;20185;-71
2022/11/21 09:21:13;;;;;;;29.87;17.40;;;;;;;-0.12;93.70;100603.94;4978039;28;20606;-70
2022/11/21 09:23:39;;;;;;;27.93;16.87;;;;;;;-0.12;93.62;100608.97;4978985;28;20181;-72
2022/11/21 09:26:04;;;;;;;31.53;17.77;;;;;;;0.66;91.72;100600.81;4974580;28;20842;-70
2022/11/21 09:28:29;;;;;;;27.97;16.27;;;;;;;1.09;88.77;100604.81;4974467;28;20227;-71
2022/11/21 09:30:55;;;;;;;27.03;15.87;;;;;;;1.38;88.39;100601.28;4976981;28;20189;-70
2022/11/21 09:33:20;;;;;;;26.17;15.13;;;;;;;3.45;80.09;100593.59;4975484;28;20212;-70
2022/11/21 09:35:46;;;;;;;21.27;13.27;;;;;;;3.94;75.04;100588.13;4980381;28;20279;-73
2022/11/21 09:38:11;;;;;;;20.30;13.13;;;;;;;4.40;73.04;100588.28;4973657;28;20200;-72
2022/11/21 09:40:42;;;;;;;19.93;13.20;;;;;;;3.37;74.72;100599.97;4973123;28;20223;-71
2022/11/21 09:43:37;;;;;;;20.70;13.30;;;;;;;3.14;75.74;100600.63;4978487;28;20593;-73
2022/11/21 09:46:09;;;;;;;19.33;12.80;;;;;;;5.49;69.97;100589.06;4976708;28;20212;-73
2022/11/21 09:48:57;;;;;;;19.23;13.63;;;;;;;4.97;68.22;100593.06;4972855;28;20797;-71
2022/11/21 09:51:24;;;;;;;21.03;14.07;;;;;;;2.23;76.34;100605.63;4981551;28;20545;-72
2022/11/21 09:54:19;;;;;;;20.70;13.90;;;;;;;1.53;80.55;100607.13;4981022;28;20251;-72
2022/11/21 09:56:46;;;;;;;20.87;13.90;;;;;;;1.46;82.89;100610.97;4986713;28;20228;-71
2022/11/21 09:59:35;;;;;;;23.10;14.67;;;;;;;1.47;84.96;100606.81;4978233;28;20553;-71
2022/11/21 10:02:12;;;;;;;21.43;14.30;;;;;;;1.84;84.60;100598.63;4988170;28;20207;-71
2022/11/21 10:04:38;;;;;;;20.77;14.57;;;;;;;4.77;71.15;100572.03;4969482;28;20339;-72
2022/11/21 10:07:09;;;;;;;19.10;12.87;;;;;;;4.57;71.21;100567.88;4973107;28;20688;-72
2022/11/21 10:09:43;;;;;;;18.73;13.40;;;;;;;3.71;73.07;100578.69;4977236;28;20188;-72
2022/11/21 10:12:38;;;;;;;20.90;13.97;;;;;;;7.80;62.53;100558.97;4977128;28;20191;-73
2022/11/21 10:15:12;;;;;;;17.00;12.03;;;;;;;10.04;53.17;100546.78;4973269;28;20216;-72
2022/11/21 10:18:13;;;;;;;16.67;12.83;;;;;;;10.82;51.37;100539.44;4973207;28;20187;-73
2022/11/21 10:21:09;;;;;;;15.80;12.53;;;;;;;10.76;50.12;100540.22;4968057;28;20884;-72
2022/11/21 10:24:23;;;;;;;16.90;12.63;;;;;;;8.90;54.03;100562.44;4977901;28;20196;-72
2022/11/21 10:26:55;;;;;;;19.67;13.37;;;;;;;8.36;56.52;100563.78;4997787;28;20684;-73
2022/11/21 10:29:47;;;;;;;16.97;12.87;;;;;;;6.71;59.80;100576.19;4993533;28;20195;-73
2022/11/21 10:32:49;;;;;;;18.50;12.87;;;;;;;5.72;64.59;100580.56;4975097;28;20747;-73
2022/11/21 10:35:33;;;;;;;19.13;12.93;;;;;;;5.66;65.90;100572.75;4969311;28;20258;-73
2022/11/21 10:38:01;;;;;;;19.60;13.77;;;;;;;6.00;66.16;100568.00;4973561;28;20225;-73
2022/11/21 10:40:35;;;;;;;17.53;12.57;;;;;;;5.37;65.90;100566.63;4972823;28;20247;-73
2022/11/21 10:45:52;;;;;;;18.73;13.77;;;;;;;5.03;68.66;100570.44;4967937;28;20215;-73
2022/11/21 10:48:18;;;;;;;18.17;13.07;;;;;;;6.17;66.46;100561.78;4974859;28;20192;-73
2022/11/21 10:51:10;;;;;;;16.10;12.90;;;;;;;6.93;63.56;100556.53;4975021;28;20191;-73
2022/11/21 10:56:22;;;;;;;14.77;12.80;;;;;;;13.28;43.45;100515.03;4972543;28;20231;-73
2022/11/21 10:58:51;;;;;;;13.37;11.67;;;;;;;16.60;38.04;100504.44;4971935;28;20692;-74
2022/11/21 11:01:22;;;;;;;14.17;11.70;;;;;;;17.53;36.00;100492.94;4978951;28;20909;-74
2022/11/21 11:04:09;;;;;;;13.97;12.47;;;;;;;15.03;38.53;100494.38;4965611;28;20653;-73
2022/11/21 11:06:42;;;;;;;12.43;11.13;;;;;;;16.63;35.97;100491.50;4978989;28;20236;-73
2022/11/21 11:09:28;;;;;;;15.77;12.33;;;;;;;17.97;33.89;100485.38;4968080;28;20188;-73
2022/11/21 11:15:22;;;;;;;15.40;12.47;;;;;;;17.86;33.33;100474.31;4964969;28;20291;-74
2022/11/21 11:17:55;;;;;;;13.20;11.80;;;;;;;18.04;33.39;100463.63;4965251;28;20634;-75
2022/11/21 11:20:33;;;;;;;13.13;11.73;;;;;;;13.69;40.48;100491.13;4976553;28;20191;-74
2022/11/21 11:22:58;;;;;;;14.57;12.60;;;;;;;12.66;43.05;100492.47;4976945;28;20203;-71
2022/11/21 11:25:24;;;;;;;16.57;13.13;;;;;;;13.85;41.77;100484.28;4953245;28;20631;-72
2022/11/21 11:27:49;;;;;;;13.33;11.93;;;;;;;12.83;42.10;100490.88;4972966;28;20187;-72